createdAt,value
2023-01-23T00:01:19.927Z,1.90
2023-01-23T00:03:47.284Z,1.90
2023-01-23T00:06:16.199Z,2.00
2023-01-23T00:08:44.954Z,2.00
2023-01-23T00:11:14.916Z,2.00
2023-01-23T00:13:42.175Z,2.00
2023-01-23T00:16:15.951Z,2.00
2023-01-23T00:18:43.100Z,2.00
2023-01-23T00:21:19.607Z,2.00
2023-01-23T00:23:49.259Z,2.00
2023-01-23T00:26:20.595Z,2.00
2023-01-23T00:28:48.084Z,2.00
2023-01-23T00:31:21.088Z,2.00
2023-01-23T00:33:48.274Z,2.00
2023-01-23T00:36:15.939Z,2.00
2023-01-23T00:38:43.231Z,2.00
2023-01-23T00:41:10.560Z,2.00
2023-01-23T00:43:37.664Z,1.90
2023-01-23T00:46:05.197Z,1.90
2023-01-23T00:48:32.213Z,1.90
2023-01-23T00:50:59.599Z,1.90
2023-01-23T00:53:26.641Z,1.80
2023-01-23T00:55:54.763Z,1.90
2023-01-23T00:58:21.797Z,1.90
2023-01-23T01:00:49.017Z,1.80
2023-01-23T01:03:16.048Z,1.80
2023-01-23T01:05:43.262Z,1.80
2023-01-23T01:08:10.394Z,1.90
2023-01-23T01:10:40.485Z,1.80
2023-01-23T01:13:07.869Z,1.90
2023-01-23T01:15:35.753Z,1.90
2023-01-23T01:18:03.644Z,1.80
2023-01-23T01:20:32.143Z,1.80
2023-01-23T01:23:00.613Z,1.70
2023-01-23T01:25:28.151Z,1.80
2023-01-23T01:27:56.088Z,1.80
2023-01-23T01:30:27.120Z,1.80
2023-01-23T01:32:55.353Z,1.80
2023-01-23T01:35:23.694Z,1.90
2023-01-23T01:37:51.472Z,1.90
2023-01-23T01:40:25.784Z,1.90
2023-01-23T01:42:57.863Z,1.90
2023-01-23T01:46:02.924Z,1.80
2023-01-23T01:48:36.505Z,1.90
2023-01-23T01:51:11.903Z,1.80
2023-01-23T01:53:39.895Z,1.80
2023-01-23T01:56:11.691Z,1.70
2023-01-23T01:58:40.222Z,1.80
2023-01-23T02:01:07.528Z,1.80
2023-01-23T02:03:34.867Z,1.90
2023-01-23T02:06:02.496Z,1.90
2023-01-23T02:08:29.480Z,1.90
2023-01-23T02:10:56.883Z,1.90
2023-01-23T02:13:31.205Z,1.80
2023-01-23T02:16:01.436Z,1.80
2023-01-23T02:18:31.368Z,1.70
2023-01-23T02:21:03.596Z,1.70
2023-01-23T02:23:57.302Z,1.70
2023-01-23T02:26:37.173Z,1.80
2023-01-23T02:29:05.364Z,1.80
2023-01-23T02:31:33.197Z,1.80
2023-01-23T02:34:00.315Z,1.80
2023-01-23T02:36:31.088Z,1.80
2023-01-23T02:39:06.606Z,1.80
2023-01-23T02:41:39.947Z,1.80
2023-01-23T02:44:27.249Z,1.80
2023-01-23T02:47:04.076Z,1.80
2023-01-23T02:49:31.791Z,1.90
2023-01-23T02:52:00.380Z,1.90
2023-01-23T02:54:27.533Z,1.80
2023-01-23T02:56:54.769Z,1.80
2023-01-23T02:59:40.446Z,1.80
2023-01-23T03:02:08.114Z,1.80
2023-01-23T03:04:35.144Z,1.90
2023-01-23T03:07:02.487Z,1.90
2023-01-23T03:09:29.602Z,1.90
2023-01-23T03:11:56.820Z,1.90
2023-01-23T03:14:24.907Z,1.90
2023-01-23T03:16:54.085Z,1.90
2023-01-23T03:19:24.538Z,1.90
2023-01-23T03:21:52.412Z,2.00
2023-01-23T03:24:20.749Z,1.90
2023-01-23T03:26:49.112Z,1.90
2023-01-23T03:29:43.056Z,1.90
2023-01-23T03:32:12.395Z,1.80
2023-01-23T03:34:39.526Z,1.80
2023-01-23T03:37:08.052Z,1.80
2023-01-23T03:39:53.964Z,1.80
2023-01-23T03:42:21.581Z,1.80
2023-01-23T03:44:49.036Z,1.80
2023-01-23T03:47:16.248Z,1.90
2023-01-23T03:49:43.190Z,1.90
2023-01-23T03:52:10.455Z,1.90
2023-01-23T03:54:37.523Z,1.90
2023-01-23T03:57:04.849Z,1.90
2023-01-23T03:59:31.835Z,1.90
2023-01-23T04:02:00.760Z,1.80
2023-01-23T04:04:27.755Z,1.90
2023-01-23T04:06:54.944Z,1.80
2023-01-23T04:09:27.470Z,1.90
2023-01-23T04:11:55.623Z,2.00
2023-01-23T04:14:24.435Z,1.90
2023-01-23T04:16:52.510Z,1.90
2023-01-23T04:19:20.009Z,1.90
2023-01-23T04:21:49.033Z,1.90
2023-01-23T04:24:16.777Z,2.00
2023-01-23T04:26:44.907Z,1.90
2023-01-23T04:29:12.629Z,1.90
2023-01-23T04:31:40.338Z,1.90
2023-01-23T04:34:07.357Z,1.80
2023-01-23T04:36:35.264Z,1.90
2023-01-23T04:39:03.199Z,1.90
2023-01-23T04:41:34.173Z,2.00
2023-01-23T04:44:20.088Z,2.00
2023-01-23T04:46:50.042Z,1.90
2023-01-23T04:49:18.821Z,1.90
2023-01-23T04:51:48.233Z,1.80
2023-01-23T04:54:15.581Z,1.90
2023-01-23T04:56:43.461Z,1.90
2023-01-23T04:59:10.522Z,1.90
2023-01-23T05:01:37.786Z,1.90
2023-01-23T05:04:05.428Z,1.90
2023-01-23T05:06:32.788Z,1.90
2023-01-23T05:08:59.777Z,1.90
2023-01-23T05:11:27.249Z,1.90
2023-01-23T05:13:54.207Z,1.80
2023-01-23T05:16:21.416Z,1.80
2023-01-23T05:18:48.392Z,1.90
2023-01-23T05:21:15.590Z,1.90
2023-01-23T05:23:42.477Z,1.90
2023-01-23T05:26:09.664Z,1.90
2023-01-23T05:28:36.615Z,2.00
2023-01-23T05:31:04.083Z,1.90
2023-01-23T05:33:31.118Z,1.90
2023-01-23T05:36:01.941Z,2.00
2023-01-23T05:38:28.950Z,1.90
2023-01-23T05:40:56.137Z,1.80
2023-01-23T05:43:23.157Z,1.90
2023-01-23T05:45:50.521Z,1.90
2023-01-23T05:48:17.455Z,1.90
2023-01-23T05:50:44.697Z,2.00
2023-01-23T05:53:11.734Z,2.00
2023-01-23T05:55:39.423Z,2.00
2023-01-23T05:58:06.357Z,2.00
2023-01-23T06:00:33.630Z,1.90
2023-01-23T06:03:00.726Z,2.00
2023-01-23T06:05:28.247Z,2.00
2023-01-23T06:07:55.357Z,2.10
2023-01-23T06:10:22.692Z,2.00
2023-01-23T06:12:49.609Z,2.00
2023-01-23T06:15:16.922Z,2.10
2023-01-23T06:17:43.967Z,2.10
2023-01-23T06:20:12.608Z,2.20
2023-01-23T06:22:39.626Z,2.10
2023-01-23T06:25:07.383Z,2.10
2023-01-23T06:27:34.498Z,2.10
2023-01-23T06:30:01.729Z,2.20
2023-01-23T06:32:28.667Z,2.20
2023-01-23T06:34:55.928Z,2.20
2023-01-23T06:37:22.981Z,2.10
2023-01-23T06:39:50.204Z,2.20
2023-01-23T06:42:17.171Z,2.20
2023-01-23T06:44:44.957Z,2.20
2023-01-23T06:47:11.927Z,2.10
2023-01-23T06:49:39.287Z,2.10
2023-01-23T06:52:06.191Z,2.10
2023-01-23T06:54:33.543Z,2.10
2023-01-23T06:57:00.464Z,2.20
2023-01-23T06:59:27.734Z,2.20
2023-01-23T07:01:54.653Z,2.30
2023-01-23T07:04:21.972Z,2.40
2023-01-23T07:06:48.963Z,2.50
2023-01-23T07:09:16.300Z,2.40
2023-01-23T07:11:43.368Z,2.50
2023-01-23T07:14:11.309Z,2.50
2023-01-23T07:16:38.388Z,2.40
2023-01-23T07:19:05.684Z,2.40
2023-01-23T07:21:33.065Z,2.40
2023-01-23T07:24:00.391Z,2.50
2023-01-23T07:26:27.934Z,2.60
2023-01-23T07:28:55.662Z,2.60
2023-01-23T07:31:23.077Z,2.60
2023-01-23T07:33:50.380Z,2.60
2023-01-23T07:36:18.517Z,2.60
2023-01-23T07:38:45.904Z,2.70
2023-01-23T07:41:13.806Z,2.70
2023-01-23T07:43:41.216Z,2.70
2023-01-23T07:46:09.535Z,2.70
2023-01-23T07:48:37.760Z,2.60
2023-01-23T07:51:05.554Z,2.60
2023-01-23T07:53:33.231Z,2.50
2023-01-23T07:56:00.158Z,2.60
2023-01-23T07:58:27.498Z,2.60
2023-01-23T08:00:54.488Z,2.60
2023-01-23T08:03:21.824Z,2.60
2023-01-23T08:05:50.205Z,2.70
2023-01-23T08:08:17.469Z,2.60
2023-01-23T08:10:44.479Z,2.60
2023-01-23T08:13:11.882Z,2.60
2023-01-23T08:15:39.034Z,2.60
2023-01-23T08:18:06.440Z,2.70
2023-01-23T08:20:33.733Z,2.70
2023-01-23T08:23:02.306Z,2.60
2023-01-23T08:25:29.839Z,2.60
2023-01-23T08:27:57.262Z,2.60
2023-01-23T08:30:24.236Z,2.60
2023-01-23T08:32:51.647Z,2.60
2023-01-23T08:35:18.688Z,2.70
2023-01-23T08:37:45.962Z,2.80
2023-01-23T08:40:13.256Z,2.80
2023-01-23T08:42:40.422Z,2.80
2023-01-23T08:45:08.082Z,2.80
2023-01-23T08:47:36.760Z,2.90
2023-01-23T08:50:05.621Z,3.00
2023-01-23T08:52:34.858Z,2.80
2023-01-23T08:55:01.958Z,2.80
2023-01-23T08:57:29.469Z,2.90
2023-01-23T08:59:56.762Z,3.00
2023-01-23T09:02:24.328Z,2.90
2023-01-23T09:04:51.573Z,2.80
2023-01-23T09:07:18.911Z,2.90
2023-01-23T09:09:45.918Z,2.90
2023-01-23T09:12:13.679Z,2.90
2023-01-23T09:14:40.753Z,3.00
2023-01-23T09:17:08.006Z,3.20
2023-01-23T09:19:35.139Z,3.10
2023-01-23T09:22:02.774Z,3.10
2023-01-23T09:24:29.797Z,3.00
2023-01-23T09:26:57.720Z,3.00
2023-01-23T09:29:24.743Z,3.00
2023-01-23T09:31:52.197Z,3.10
2023-01-23T09:34:19.409Z,3.10
2023-01-23T09:36:46.630Z,3.20
2023-01-23T09:39:13.619Z,3.00
2023-01-23T09:41:43.621Z,2.90
2023-01-23T09:44:34.638Z,2.90
2023-01-23T09:47:31.736Z,3.00
2023-01-23T09:50:02.113Z,3.00
2023-01-23T09:52:34.265Z,3.10
2023-01-23T09:55:33.585Z,3.20
2023-01-23T09:58:03.495Z,3.10
2023-01-23T10:00:33.488Z,3.20
2023-01-23T10:03:03.585Z,3.10
2023-01-23T10:05:51.745Z,3.20
2023-01-23T10:08:26.787Z,3.20
2023-01-23T10:11:08.680Z,3.10
2023-01-23T10:13:53.548Z,3.20
2023-01-23T10:16:49.439Z,3.20
2023-01-23T10:19:51.015Z,3.20
2023-01-23T10:22:30.002Z,3.30
2023-01-23T10:24:58.798Z,3.20
2023-01-23T10:27:38.388Z,3.20
2023-01-23T10:30:14.622Z,3.30
2023-01-23T10:32:49.936Z,3.30
2023-01-23T10:35:50.705Z,3.30
2023-01-23T10:38:46.343Z,3.40
2023-01-23T10:41:23.423Z,3.30
2023-01-23T10:43:53.286Z,3.30
2023-01-23T10:46:28.035Z,3.30
2023-01-23T10:48:55.579Z,3.20
2023-01-23T10:51:28.006Z,3.30
2023-01-23T10:54:29.933Z,3.40
2023-01-23T10:57:22.851Z,3.50
2023-01-23T11:00:04.241Z,3.50
2023-01-23T11:02:34.957Z,3.40
2023-01-23T11:05:04.250Z,3.40
2023-01-23T11:07:36.842Z,3.50
2023-01-23T11:10:10.175Z,3.60
2023-01-23T11:12:49.370Z,3.60
2023-01-23T11:15:26.143Z,3.50
2023-01-23T11:17:55.722Z,3.50
2023-01-23T11:20:43.603Z,3.40
2023-01-23T11:23:13.195Z,3.40
2023-01-23T11:25:46.195Z,3.30
2023-01-23T11:28:25.612Z,3.40
2023-01-23T11:31:11.879Z,3.30
2023-01-23T11:33:44.354Z,3.40
2023-01-23T11:36:17.411Z,3.50
2023-01-23T11:39:22.021Z,3.60
2023-01-23T11:41:49.616Z,3.50
2023-01-23T11:44:23.068Z,3.40
2023-01-23T11:47:27.404Z,3.40
2023-01-23T11:50:22.868Z,3.50
2023-01-23T11:53:19.573Z,3.40
2023-01-23T11:55:53.383Z,3.40
2023-01-23T11:58:30.795Z,3.40
2023-01-23T12:01:12.343Z,3.50
2023-01-23T12:04:00.179Z,3.40
2023-01-23T12:06:36.818Z,3.50
2023-01-23T12:09:04.068Z,3.40
2023-01-23T12:11:48.803Z,3.40
2023-01-23T12:14:48.422Z,3.40
2023-01-23T12:17:27.204Z,3.40
2023-01-23T12:20:15.042Z,3.50
2023-01-23T12:22:44.546Z,3.50
2023-01-23T12:25:14.270Z,3.50
2023-01-23T12:27:43.901Z,3.40
2023-01-23T12:30:52.763Z,3.50
2023-01-23T12:33:31.583Z,3.40
2023-01-23T12:36:04.789Z,3.40
2023-01-23T12:38:55.102Z,3.50
2023-01-23T12:41:25.300Z,3.60
2023-01-23T12:44:13.800Z,3.60
2023-01-23T12:46:51.077Z,3.50
2023-01-23T12:49:42.114Z,3.50
2023-01-23T12:52:42.676Z,3.40
2023-01-23T12:55:29.474Z,3.30
2023-01-23T12:58:07.030Z,3.40
2023-01-23T13:00:55.569Z,3.40
2023-01-23T13:03:44.917Z,3.40
2023-01-23T13:06:47.392Z,3.50
2023-01-23T13:09:37.265Z,3.40
2023-01-23T13:12:21.534Z,3.20
2023-01-23T13:15:30.966Z,3.20
2023-01-23T13:17:58.409Z,3.20
2023-01-23T13:21:12.861Z,3.30
2023-01-23T13:23:40.101Z,3.40
2023-01-23T13:26:34.037Z,3.30
2023-01-23T13:29:04.881Z,3.30
2023-01-23T13:31:50.640Z,3.20
2023-01-23T13:34:17.757Z,3.30
2023-01-23T13:36:52.034Z,3.20
2023-01-23T13:39:28.513Z,3.30
2023-01-23T13:42:16.282Z,3.20
2023-01-23T13:45:16.703Z,3.20
2023-01-23T14:20:28.147Z,3.30
2023-01-23T14:22:56.389Z,3.20
2023-01-23T14:25:23.952Z,3.20
2023-01-23T14:28:03.736Z,3.20
2023-01-23T14:30:31.674Z,3.20
2023-01-23T14:32:59.389Z,3.20
2023-01-23T14:35:32.194Z,3.30
2023-01-23T14:38:05.960Z,3.20
2023-01-23T14:40:47.104Z,3.10
2023-01-23T14:43:22.641Z,3.10
2023-01-23T14:46:03.771Z,3.10
2023-01-23T14:48:36.931Z,3.10
2023-01-23T14:51:17.032Z,3.00
2023-01-23T14:54:01.496Z,3.00
2023-01-23T14:56:39.573Z,2.90
2023-01-23T14:59:27.783Z,2.90
2023-01-23T15:01:56.713Z,3.00
2023-01-23T15:04:27.830Z,3.00
2023-01-23T15:07:00.445Z,2.90
2023-01-23T15:09:41.367Z,2.90
2023-01-23T15:12:15.514Z,2.80
2023-01-23T15:14:44.224Z,2.80
2023-01-23T15:17:19.870Z,2.80
2023-01-23T15:19:59.356Z,2.80
2023-01-23T15:22:28.990Z,2.90
2023-01-23T15:24:56.916Z,3.00
2023-01-23T15:27:37.234Z,2.90
2023-01-23T15:30:35.801Z,2.90
2023-01-23T15:33:07.676Z,2.80
2023-01-23T15:35:37.094Z,2.80
2023-01-23T15:38:06.707Z,2.90
2023-01-23T15:40:36.811Z,2.80
2023-01-23T15:43:12.768Z,2.70
2023-01-23T15:45:40.054Z,2.80
2023-01-23T15:48:07.183Z,2.80
2023-01-23T15:50:34.444Z,2.80
2023-01-23T15:53:01.455Z,2.70
2023-01-23T15:55:29.430Z,2.70
2023-01-23T15:57:56.734Z,2.80
2023-01-23T16:00:28.673Z,2.80
2023-01-23T16:02:57.750Z,2.80
2023-01-23T16:05:28.702Z,2.80
2023-01-23T16:07:57.106Z,2.80
2023-01-23T16:10:27.743Z,2.70
2023-01-23T16:12:57.384Z,2.80
2023-01-23T16:15:26.787Z,2.80
2023-01-23T16:17:54.004Z,2.80
2023-01-23T16:20:24.659Z,2.80
2023-01-23T16:22:56.059Z,2.90
2023-01-23T16:25:42.978Z,2.80
2023-01-23T16:28:22.998Z,2.70
2023-01-23T16:30:51.980Z,2.80
2023-01-23T16:33:20.264Z,2.80
2023-01-23T16:35:49.510Z,2.90
2023-01-23T16:38:28.759Z,2.80
2023-01-23T16:40:59.570Z,2.90
2023-01-23T16:43:27.345Z,2.80
2023-01-23T16:45:56.546Z,2.70
2023-01-23T16:48:27.483Z,2.70
2023-01-23T16:51:04.902Z,2.70
2023-01-23T16:53:35.418Z,2.80
2023-01-23T16:56:03.356Z,2.80
2023-01-23T16:58:35.140Z,2.70
2023-01-23T17:01:08.627Z,2.70
2023-01-23T17:03:40.679Z,2.80
2023-01-23T17:06:16.184Z,2.90
2023-01-23T17:08:43.402Z,2.80
2023-01-23T17:11:19.910Z,2.80
2023-01-23T17:13:47.965Z,2.80
2023-01-23T17:16:26.458Z,2.80
2023-01-23T17:18:55.184Z,2.80
2023-01-23T17:21:25.040Z,2.80
2023-01-23T17:23:52.509Z,2.90
2023-01-23T17:26:21.058Z,2.90
2023-01-23T17:28:48.253Z,2.80
2023-01-23T17:31:28.560Z,2.90
2023-01-23T17:33:55.905Z,2.90
2023-01-23T17:36:25.111Z,2.90
2023-01-23T17:38:55.221Z,2.90
2023-01-23T17:41:22.419Z,2.80
2023-01-23T17:43:51.416Z,2.80
2023-01-23T17:46:26.268Z,2.80
2023-01-23T17:48:54.965Z,2.90
2023-01-23T17:51:23.469Z,2.90
2023-01-23T17:53:51.161Z,3.00
2023-01-23T17:56:18.754Z,2.90
2023-01-23T17:58:45.787Z,2.80
2023-01-23T18:01:31.205Z,2.70
2023-01-23T18:03:58.245Z,2.70
2023-01-23T18:06:25.427Z,2.70
2023-01-23T18:08:52.343Z,2.90
2023-01-23T18:11:24.089Z,2.90
2023-01-23T18:14:15.612Z,2.80
2023-01-23T18:16:49.821Z,2.80
2023-01-23T18:19:23.046Z,2.80
2023-01-23T18:21:53.507Z,2.80
2023-01-23T18:24:27.521Z,2.80
2023-01-23T18:27:34.386Z,2.70
2023-01-23T18:30:23.126Z,2.80
2023-01-23T18:33:27.144Z,2.90
2023-01-23T18:36:11.909Z,2.80
2023-01-23T18:38:57.797Z,2.80
2023-01-23T18:41:27.310Z,3.00
2023-01-23T18:44:06.365Z,2.90
2023-01-23T18:46:34.759Z,2.90
2023-01-23T18:49:02.206Z,2.80
2023-01-23T18:51:54.236Z,2.80
2023-01-23T18:54:33.580Z,2.70
2023-01-23T18:57:26.032Z,2.80
2023-01-23T19:00:30.950Z,2.90
2023-01-23T19:03:09.755Z,2.90
2023-01-23T19:05:37.170Z,2.90
2023-01-23T19:08:04.310Z,2.80
2023-01-23T19:10:48.397Z,2.70
2023-01-23T19:13:22.631Z,2.70
2023-01-23T19:16:15.541Z,2.60
2023-01-23T19:19:07.464Z,2.60
2023-01-23T19:21:43.331Z,2.70
2023-01-23T19:24:11.197Z,2.80
2023-01-23T19:26:40.973Z,2.70
2023-01-23T19:29:26.152Z,2.60
2023-01-23T19:32:08.904Z,2.60
2023-01-23T19:34:35.988Z,2.70
2023-01-23T19:37:03.995Z,2.70
2023-01-23T19:39:31.240Z,2.70
2023-01-23T19:41:58.972Z,2.60
2023-01-23T19:44:28.794Z,2.70
2023-01-23T19:46:56.207Z,2.70
2023-01-23T19:49:23.271Z,2.70
2023-01-23T19:51:50.490Z,2.70
2023-01-23T19:54:17.529Z,2.70
2023-01-23T19:56:44.786Z,2.70
2023-01-23T19:59:11.832Z,2.60
2023-01-23T20:01:40.423Z,2.60
2023-01-23T20:04:08.941Z,2.60
2023-01-23T20:06:38.872Z,2.60
2023-01-23T20:09:05.934Z,2.60
2023-01-23T20:11:33.225Z,2.60
2023-01-23T20:14:00.187Z,2.60
2023-01-23T20:16:27.552Z,2.60
2023-01-23T20:18:55.027Z,2.60
2023-01-23T20:21:24.439Z,2.70
2023-01-23T20:23:51.813Z,2.70
2023-01-23T20:26:20.701Z,2.70
2023-01-23T20:28:49.030Z,2.70
2023-01-23T20:31:17.026Z,2.70
2023-01-23T20:33:44.047Z,2.70
2023-01-23T20:36:12.202Z,2.70
2023-01-23T20:38:39.867Z,2.70
2023-01-23T20:41:09.989Z,2.70
2023-01-23T20:43:38.424Z,2.70
2023-01-23T20:46:07.040Z,2.70
2023-01-23T20:48:39.168Z,2.60
2023-01-23T20:51:09.658Z,2.60
2023-01-23T20:53:39.953Z,2.60
2023-01-23T20:56:12.520Z,2.60
2023-01-23T20:59:00.895Z,2.60
2023-01-23T21:01:31.012Z,2.60
2023-01-23T21:03:58.240Z,2.60
2023-01-23T21:06:25.226Z,2.60
2023-01-23T21:08:52.423Z,2.60
2023-01-23T21:11:20.796Z,2.60
2023-01-23T21:13:53.538Z,2.50
2023-01-23T21:16:21.006Z,2.60
2023-01-23T21:18:48.331Z,2.60
2023-01-23T21:21:18.206Z,2.50
2023-01-23T21:23:48.807Z,2.50
2023-01-23T21:26:22.484Z,2.50
2023-01-23T21:28:51.240Z,2.40
2023-01-23T21:31:29.145Z,2.50
2023-01-23T21:33:58.551Z,2.50
2023-01-23T21:36:25.989Z,2.60
2023-01-23T21:38:54.176Z,2.60
2023-01-23T21:41:21.695Z,2.60
2023-01-23T21:43:49.112Z,2.60
2023-01-23T21:46:16.457Z,2.50
2023-01-23T21:48:43.814Z,2.60
2023-01-23T21:51:16.931Z,2.60
2023-01-23T21:53:46.346Z,2.60
2023-01-23T21:56:14.822Z,2.60
2023-01-23T21:58:42.542Z,2.50
2023-01-23T22:01:32.406Z,2.60
2023-01-23T22:04:05.312Z,2.70
2023-01-23T22:06:33.559Z,2.60
2023-01-23T22:09:00.803Z,2.60
2023-01-23T22:11:28.300Z,2.60
2023-01-23T22:13:55.671Z,2.60
2023-01-23T22:16:40.080Z,2.60
2023-01-23T22:19:14.304Z,2.60
2023-01-23T22:21:41.476Z,2.60
2023-01-23T22:24:08.860Z,2.60
2023-01-23T22:26:35.805Z,2.60
2023-01-23T22:29:03.029Z,2.50
2023-01-23T22:31:30.099Z,2.50
2023-01-23T22:33:57.569Z,2.50
2023-01-23T22:36:24.640Z,2.50
2023-01-23T22:38:56.307Z,2.50
2023-01-23T22:41:23.915Z,2.60
2023-01-23T22:43:55.467Z,2.60
2023-01-23T22:46:23.256Z,2.60
2023-01-23T22:48:51.741Z,2.50
2023-01-23T22:51:26.702Z,2.50
2023-01-23T22:53:55.469Z,2.50
2023-01-23T22:56:23.753Z,2.50
2023-01-23T22:58:53.333Z,2.50
2023-01-23T23:01:23.088Z,2.60
2023-01-23T23:03:50.983Z,2.50
2023-01-23T23:06:18.835Z,2.50
2023-01-23T23:08:47.883Z,2.50
2023-01-23T23:11:18.539Z,2.50
2023-01-23T23:13:46.464Z,2.50
2023-01-23T23:16:17.833Z,2.50
2023-01-23T23:18:46.608Z,2.60
2023-01-23T23:21:15.639Z,2.60
2023-01-23T23:23:43.006Z,2.50
2023-01-23T23:26:11.372Z,2.50
2023-01-23T23:28:39.024Z,2.50
2023-01-23T23:31:07.433Z,2.60
2023-01-23T23:33:34.847Z,2.50
2023-01-23T23:36:01.836Z,2.50
2023-01-23T23:38:29.069Z,2.50
2023-01-23T23:41:05.263Z,2.50
2023-01-23T23:43:32.892Z,2.50
2023-01-23T23:46:02.341Z,2.40
2023-01-23T23:48:30.687Z,2.40
2023-01-23T23:51:00.436Z,2.40
2023-01-23T23:53:28.185Z,2.50
2023-01-23T23:55:55.589Z,2.50
2023-01-23T23:58:26.384Z,2.60
